M I D A S
Marine Information and Data Acquisition System
Tripno 868 of the Zeeleeuw from 2005-03-22 08:14:00 to 2005-03-22 13:26:49
Back to CruiseResearch ActivitiesStationsMapUnderway DataData graphs

EquipmentUnitsComment
TimeDGPSUTC
LatitudeDGPSDM.mWGS84
LongitudeDGPSDM.mWGS84
HeadingGyrodeg 
SOGDGPSknotsSpeed over ground
COGDGPSdegCourse over ground
DepthEcho soundermeters200 kHz
Missing or incorrect values are displayed as -999
Navigation data collected by the RV Zeeleeuw from 2005-03-22 08:12:02 to 2005-03-22 13:35:43
Time Latitude Longitude Heading SOG COG Depth
2005-03-22 08:13:08 51°13.613 2°56.037 116.1 3.4 294 -999
2005-03-22 08:14:08 51°13.646 2°55.942 125.8 4.3 303 -999
2005-03-22 08:15:08 51°13.684 2°55.844 116.1 4.4 296 -999
2005-03-22 08:16:07 51°13.7 2°55.74 92 3.6 276 -999
2005-03-22 08:17:08 51°13.718 2°55.743 18.1 0.7 2 5.5
2005-03-22 08:18:07 51°13.738 2°55.724 333.1 3.1 331 11.4
2005-03-22 08:19:07 51°13.821 2°55.64 333.8 7 331 10.9
2005-03-22 08:20:07 51°13.936 2°55.554 339.8 6.4 336 11.2
2005-03-22 08:21:07 51°14.058 2°55.467 340 8 336 10.7
2005-03-22 08:22:08 51°14.174 2°55.36 328.8 8 326 10.8
2005-03-22 08:23:07 51°14.274 2°55.205 315.9 8.6 313 10.9
2005-03-22 08:24:07 51°14.361 2°55.036 312.7 8.9 310 11.3
2005-03-22 08:25:07 51°14.48 2°54.824 303.8 11.5 302 11.5
2005-03-22 08:26:07 51°14.51 2°54.508 271.7 12.7 269 11.6
2005-03-22 08:27:07 51°14.459 2°54.182 250.9 12.7 249 10.8
2005-03-22 08:28:07 51°14.358 2°53.888 239 12.6 236 10.8
2005-03-22 08:29:07 51°14.246 2°53.601 239.9 12.7 238 10.8
2005-03-22 08:30:07 51°14.137 2°53.312 240.7 12.8 240 11
2005-03-22 08:31:07 51°14.027 2°53.023 240.2 12.8 238 11.3
2005-03-22 08:32:07 51°13.917 2°52.732 240.4 12.8 238 11.7
2005-03-22 08:33:07 51°13.808 2°52.439 240.9 12.7 239 11.8
2005-03-22 08:34:07 51°13.699 2°52.147 240.9 12.9 240 11.9
2005-03-22 08:35:07 51°13.591 2°51.855 241.6 12.8 240 11.9
2005-03-22 08:36:07 51°13.482 2°51.563 240.4 12.8 240 12.1
2005-03-22 08:37:07 51°13.374 2°51.272 241.4 12.8 239 12.3
2005-03-22 08:38:07 51°13.267 2°50.981 241.1 12.7 239 12.4
2005-03-22 08:39:07 51°13.159 2°50.69 240.9 12.7 239 12.5
2005-03-22 08:40:07 51°13.052 2°50.4 241.6 12.7 239 12.6
2005-03-22 08:41:07 51°12.944 2°50.111 241.1 12.6 240 12.8
2005-03-22 08:42:07 51°12.836 2°49.821 241 12.7 240 12.9
2005-03-22 08:43:08 51°12.729 2°49.531 240.8 12.5 239 13
2005-03-22 08:44:07 51°12.624 2°49.249 241.6 12.6 239 13.1
2005-03-22 08:45:07 51°12.517 2°48.958 240.9 12.6 239 13.2
2005-03-22 08:46:07 51°12.41 2°48.671 241.6 12.6 240 13.3
2005-03-22 08:47:07 51°12.304 2°48.383 242.4 12.6 241 13.4
2005-03-22 08:48:07 51°12.199 2°48.096 241.3 12.5 239 13.3
2005-03-22 08:49:07 51°12.092 2°47.811 241.4 12.5 239 13.3
2005-03-22 08:50:07 51°11.985 2°47.526 241.7 12.6 240 13.2
2005-03-22 08:51:07 51°11.895 2°47.231 253.5 12.4 251 13.2
2005-03-22 08:52:07 51°11.82 2°46.923 248.5 12.5 246 13.4
2005-03-22 08:53:07 51°11.738 2°46.619 248.8 12.5 248 13.6
2005-03-22 08:54:07 51°11.657 2°46.314 248.9 12.5 246 13.7
2005-03-22 08:55:07 51°11.575 2°46.01 248.3 12.5 246 13.7
2005-03-22 08:56:07 51°11.504 2°45.7 252.5 12.5 250 13.8
2005-03-22 08:57:07 51°11.431 2°45.387 251.5 12.4 249 13.8
2005-03-22 08:58:07 51°11.359 2°45.078 251.2 12.4 249 13.8
2005-03-22 08:59:07 51°11.286 2°44.769 251.2 12.5 249 13.8
2005-03-22 09:00:07 51°11.213 2°44.46 251.4 12.4 249 13.7
2005-03-22 09:01:07 51°11.142 2°44.153 251.8 12.5 250 13.7
2005-03-22 09:02:07 51°11.074 2°43.838 255.4 12.5 254 13.8
2005-03-22 09:03:07 51°11.021 2°43.521 256 12.4 254 13.9
2005-03-22 09:04:07 51°10.974 2°43.198 260.2 12.5 259 14
2005-03-22 09:05:07 51°10.932 2°42.875 259.8 12.5 259 14.1
2005-03-22 09:06:07 51°10.876 2°42.561 252.5 12.4 252 14.2
2005-03-22 09:07:07 51°10.807 2°42.249 251.3 12.4 251 14.2
2005-03-22 09:08:07 51°10.734 2°41.945 251.4 12.4 249 14.2
2005-03-22 09:09:07 51°10.637 2°41.656 243.5 12.3 241 14.2
2005-03-22 09:10:07 51°10.543 2°41.368 247.6 12.3 245 14
2005-03-22 09:11:07 51°10.469 2°41.066 251.7 12.3 250 14.1
2005-03-22 09:12:07 51°10.401 2°40.763 252.7 12.3 251 14
2005-03-22 09:13:07 51°10.329 2°40.457 252.2 12.2 250 14.3
2005-03-22 09:14:07 51°10.263 2°40.149 255.8 12.3 253 14.4
2005-03-22 09:15:07 51°10.204 2°39.837 255.3 12.3 253 14.8
2005-03-22 09:16:07 51°10.147 2°39.526 256.1 12.2 254 15.2
2005-03-22 09:17:07 51°10.087 2°39.215 255 12.3 253 15.7
2005-03-22 09:18:07 51°10.028 2°38.907 255.5 12.3 253 16.2
2005-03-22 09:19:07 51°9.969 2°38.594 255.2 12.3 253 16.7
2005-03-22 09:20:07 51°9.912 2°38.283 255.3 12.3 253 17.2
2005-03-22 09:21:07 51°9.855 2°37.973 254.8 12.1 254 17.8
2005-03-22 09:22:07 51°9.798 2°37.667 255.4 12.2 254 18.4
2005-03-22 09:23:07 51°9.743 2°37.354 255.3 12.1 254 18.3
2005-03-22 09:24:07 51°9.688 2°37.045 255.6 12.1 255 18.2
2005-03-22 09:25:07 51°9.633 2°36.739 256 12 254 17.8
2005-03-22 09:26:07 51°9.578 2°36.434 255.2 12 253 18.4
2005-03-22 09:27:07 51°9.524 2°36.129 255.6 12 254 18.6
2005-03-22 09:28:07 51°9.47 2°35.822 256 12 255 19.2
2005-03-22 09:29:08 51°9.414 2°35.513 254.8 12 252 18.9
2005-03-22 09:30:07 51°9.361 2°35.209 255.9 12.1 256 19.6
2005-03-22 09:31:07 51°9.306 2°34.906 254.7 12.1 255 18.9
2005-03-22 09:32:07 51°9.252 2°34.595 255.4 12.1 255 20.4
2005-03-22 09:33:08 51°9.198 2°34.285 255.7 12.1 253 19.3
2005-03-22 09:34:07 51°9.141 2°33.986 253.2 12 252 20
2005-03-22 09:35:07 51°9.079 2°33.681 253 12.1 252 20.2
2005-03-22 09:36:07 51°9.019 2°33.38 253.4 12.1 252 20.4
2005-03-22 09:37:07 51°8.968 2°33.145 248.7 8.3 248 20.5
2005-03-22 09:38:07 51°8.959 2°33.049 264.1 1.4 293 20.8
2005-03-22 09:39:07 51°8.975 2°33.049 275.2 1.1 2 20.7
2005-03-22 09:40:07 51°8.992 2°33.049 265 0.9 -999 20.6
2005-03-22 09:41:07 51°9.003 2°33.051 249.2 0.7 12 20.5
2005-03-22 09:42:08 51°9.013 2°33.058 238.1 0.6 24 20.4
2005-03-22 09:43:07 51°9.022 2°33.068 230.3 0.7 41 20.4
2005-03-22 09:44:08 51°9.03 2°33.081 224.4 0.7 48 20.5
2005-03-22 09:45:07 51°9.039 2°33.096 221.3 0.8 48 20.5
2005-03-22 09:46:08 51°9.048 2°33.112 216.8 0.8 49 20.3
2005-03-22 09:47:07 51°9.056 2°33.128 215.4 0.8 52 20.2
2005-03-22 09:48:07 51°9.065 2°33.144 216.1 0.8 47 20.2
2005-03-22 09:49:07 51°9.073 2°33.159 217.5 0.7 53 20.1
2005-03-22 09:50:07 51°9.079 2°33.172 218.7 0.6 53 20.1
2005-03-22 09:51:07 51°9.084 2°33.183 220.3 0.4 58 20.1
2005-03-22 09:52:07 51°9.088 2°33.192 222 0.4 51 20.1
2005-03-22 09:53:07 51°9.092 2°33.199 221.9 0.3 38 20
2005-03-22 09:54:07 51°9.095 2°33.206 220.3 0.3 56 20
2005-03-22 09:55:07 51°9.098 2°33.213 218.3 0.3 70 20.1
2005-03-22 09:56:07 51°9.1 2°33.22 217.8 0.2 69 20.1
2005-03-22 09:57:07 51°9.1 2°33.225 213.9 0.3 132 20.1
2005-03-22 09:58:07 51°9.09 2°33.234 190.9 1 143 20.2
2005-03-22 09:59:07 51°9.075 2°33.274 149.5 2.2 110 20.3
2005-03-22 10:00:07 51°9.075 2°33.351 109.1 3.4 85 20.6
2005-03-22 10:01:07 51°9.07 2°33.44 135.7 3.2 105 20.6
2005-03-22 10:02:07 51°9.048 2°33.502 174.7 2.4 131 20.7
2005-03-22 10:03:07 51°9.014 2°33.534 187.7 2.6 158 20.6
2005-03-22 10:04:08 51°8.965 2°33.54 201.7 3.3 186 20.5
2005-03-22 10:05:07 51°8.898 2°33.525 200.6 4.4 187 20.3
2005-03-22 10:06:07 51°8.821 2°33.508 198.7 4.8 185 19.7
2005-03-22 10:07:07 51°8.739 2°33.506 196.1 5 180 18.5
2005-03-22 10:08:07 51°8.658 2°33.506 198 4.9 181 18.5
2005-03-22 10:09:08 51°8.578 2°33.505 198.8 4.9 181 18.3
2005-03-22 10:10:08 51°8.496 2°33.503 198.1 4.9 182 18.4
2005-03-22 10:11:08 51°8.412 2°33.499 198.9 5 184 19.5
2005-03-22 10:12:07 51°8.331 2°33.483 202 4.9 189 19.1
2005-03-22 10:13:07 51°8.253 2°33.466 200.8 4.1 187 18.9
2005-03-22 10:14:07 51°8.206 2°33.452 212.5 2.6 193 18.5
2005-03-22 10:15:07 51°8.183 2°33.426 227.7 1.7 223 18.1
2005-03-22 10:16:07 51°8.158 2°33.405 212.5 1.7 198 17.9
2005-03-22 10:17:07 51°8.13 2°33.392 214.8 1.7 202 17.4
2005-03-22 10:18:07 51°8.105 2°33.369 223.1 1.8 214 16.7
2005-03-22 10:19:08 51°8.078 2°33.336 220.4 2.3 214 16
2005-03-22 10:20:07 51°8.034 2°33.296 218.9 3.2 211 14.9
2005-03-22 10:21:07 51°7.984 2°33.25 217.2 3.6 210 14.1
2005-03-22 10:22:07 51°7.956 2°33.226 223.8 0.2 200 13.9
2005-03-22 10:23:07 51°7.959 2°33.224 242.5 0.4 350 13.9
2005-03-22 10:24:07 51°7.97 2°33.225 250 0.7 6 13.9
2005-03-22 10:25:07 51°7.983 2°33.229 252.5 0.9 14 14.3
2005-03-22 10:26:07 51°7.997 2°33.237 253.1 1 22 14.5
2005-03-22 10:27:07 51°8.013 2°33.248 252.6 1 25 14.8
2005-03-22 10:28:08 51°8.028 2°33.262 253.5 1.1 32 15
2005-03-22 10:29:08 51°8.045 2°33.278 255.3 1.1 33 15.5
2005-03-22 10:30:07 51°8.061 2°33.294 258.3 1.2 30 15.9
2005-03-22 10:31:08 51°8.077 2°33.309 255.5 1.1 29 16.4
2005-03-22 10:32:07 51°8.089 2°33.302 262.3 1 315 16.9
2005-03-22 10:33:07 51°8.107 2°33.27 283.7 2 313 17.8
2005-03-22 10:34:07 51°8.139 2°33.227 300.4 2.5 319 18.5
2005-03-22 10:35:07 51°8.181 2°33.195 315.8 2.9 339 19
2005-03-22 10:36:07 51°8.231 2°33.178 330.1 3.1 353 19.1
2005-03-22 10:37:08 51°8.294 2°33.184 1.8 4.2 16 18.8
2005-03-22 10:38:08 51°8.357 2°33.235 26.8 4.3 33 19.1
2005-03-22 10:39:08 51°8.411 2°33.316 51.6 4.4 49 19
2005-03-22 10:40:07 51°8.452 2°33.412 66.2 4.4 59 19
2005-03-22 10:41:07 51°8.482 2°33.513 78.3 4 67 19.2
2005-03-22 10:42:07 51°8.504 2°33.603 87.5 3.5 71 18.8
2005-03-22 10:43:07 51°8.524 2°33.686 83.1 3.2 69 19
2005-03-22 10:44:07 51°8.544 2°33.763 82.6 3.1 66 19.5
2005-03-22 10:45:07 51°8.564 2°33.837 89.2 3 69 19
2005-03-22 10:46:07 51°8.581 2°33.913 91.8 3 70 19.5
2005-03-22 10:47:07 51°8.598 2°33.987 92.3 3 70 19.4
2005-03-22 10:48:07 51°8.615 2°34.064 92.3 3 70 19.4
2005-03-22 10:49:07 51°8.632 2°34.139 90.4 3 69 19.2
2005-03-22 10:50:07 51°8.65 2°34.216 90.7 3.1 73 19.3
2005-03-22 10:51:07 51°8.668 2°34.294 90 3.2 70 19.3
2005-03-22 10:52:08 51°8.686 2°34.374 88.7 3.2 70 19.4
2005-03-22 10:53:07 51°8.705 2°34.453 84 3.2 68 19.4
2005-03-22 10:54:07 51°8.727 2°34.532 80.3 3.3 66 19.4
2005-03-22 10:55:08 51°8.751 2°34.611 78.3 3.3 64 19.4
2005-03-22 10:56:07 51°8.776 2°34.688 78 3.3 64 19.2
2005-03-22 10:57:07 51°8.8 2°34.767 80.2 3.3 66 19
2005-03-22 10:58:07 51°8.822 2°34.845 80.8 3.3 66 18.9
2005-03-22 10:59:08 51°8.845 2°34.926 79.7 3.3 66 19
2005-03-22 11:00:08 51°8.867 2°35.006 78.3 3.4 65 18.9
2005-03-22 11:01:07 51°8.89 2°35.087 78.3 3.4 66 18.9
2005-03-22 11:02:07 51°8.913 2°35.169 78.3 3.4 66 18.9
2005-03-22 11:03:07 51°8.937 2°35.251 79.2 3.4 66 18.8
2005-03-22 11:04:07 51°8.96 2°35.333 77.5 3.4 66 18.8
2005-03-22 11:05:08 51°8.983 2°35.417 75.1 3.4 65 18.7
2005-03-22 11:06:07 51°9.007 2°35.497 73.3 3.4 64 18.6
2005-03-22 11:07:07 51°9.032 2°35.58 70.5 3.5 63 18.6
2005-03-22 11:08:07 51°9.059 2°35.659 67.3 3.4 61 18.6
2005-03-22 11:09:08 51°9.086 2°35.736 68.1 3.2 61 18.5
2005-03-22 11:10:07 51°9.111 2°35.808 68.6 3.1 61 18.4
2005-03-22 11:11:08 51°9.135 2°35.88 67.1 3 61 18.5
2005-03-22 11:12:07 51°9.159 2°35.947 67.5 3 60 18.4
2005-03-22 11:13:07 51°9.187 2°36.026 70.9 3.7 63 18.4
2005-03-22 11:14:07 51°9.21 2°36.123 84.8 3.9 74 18.3
2005-03-22 11:15:07 51°9.227 2°36.226 91.1 4.2 77 18.1
2005-03-22 11:16:07 51°9.243 2°36.344 91.7 4.7 79 18
2005-03-22 11:17:08 51°9.261 2°36.482 91.4 5.9 81 17.8
2005-03-22 11:18:08 51°9.274 2°36.612 98.3 4.4 83 17.4
2005-03-22 11:19:07 51°9.277 2°36.712 110.6 3.7 87 16.8
2005-03-22 11:20:07 51°9.278 2°36.795 116.9 2.9 88 16.2
2005-03-22 11:21:07 51°9.264 2°36.926 115.1 6.7 102 15.4
2005-03-22 11:22:07 51°9.253 2°37.129 96.7 8 92 14.2
2005-03-22 11:23:08 51°9.296 2°37.34 66.7 8.5 61 14.1
2005-03-22 11:24:08 51°9.388 2°37.489 34.6 7 36 14.4
2005-03-22 11:25:07 51°9.46 2°37.559 24 4.4 30 14.9
2005-03-22 11:26:08 51°9.532 2°37.581 339 4.8 1 15.7
2005-03-22 11:27:07 51°9.57 2°37.458 272.4 7.5 274 17
2005-03-22 11:28:07 51°9.546 2°37.172 259.1 11.7 258 17.7
2005-03-22 11:29:07 51°9.468 2°36.891 246.1 11.8 243 18.1
2005-03-22 11:30:08 51°9.392 2°36.597 250.9 11.9 250 18
2005-03-22 11:31:07 51°9.33 2°36.301 253.8 11.9 252 18
2005-03-22 11:32:08 51°9.269 2°35.996 254.4 12.1 253 18.2
2005-03-22 11:33:08 51°9.21 2°35.69 254.6 12.2 254 18.7
2005-03-22 11:34:08 51°9.151 2°35.382 254.7 12.1 254 18.8
2005-03-22 11:35:07 51°9.093 2°35.077 254.4 12.2 253 18.5
2005-03-22 11:36:08 51°9.036 2°34.763 255.9 12.3 254 18.9
2005-03-22 11:37:07 51°8.979 2°34.454 255 12.2 252 17.9
2005-03-22 11:38:07 51°8.913 2°34.194 248.1 7.7 246 18.4
2005-03-22 11:39:08 51°8.883 2°34.144 215.8 0.9 188 18.2
2005-03-22 11:40:08 51°8.876 2°34.155 212.8 0.6 120 18.6
2005-03-22 11:41:08 51°8.875 2°34.178 206.1 1 85 18.4
2005-03-22 11:42:08 51°8.872 2°34.209 187.2 1.5 117 18.3
2005-03-22 11:43:08 51°8.867 2°34.252 166.2 1.7 96 18.1
2005-03-22 11:44:08 51°8.859 2°34.294 181.6 1.6 126 18.9
2005-03-22 11:45:08 51°8.838 2°34.311 209.6 1.3 173 18.7
2005-03-22 11:46:08 51°8.821 2°34.295 235.5 1.5 229 19
2005-03-22 11:47:07 51°8.816 2°34.247 263.4 2.2 276 18.6
2005-03-22 11:48:07 51°8.837 2°34.183 288.8 2.9 302 18.6
2005-03-22 11:49:07 51°8.88 2°34.126 308 3.7 328 18.3
2005-03-22 11:50:08 51°8.939 2°34.084 318.9 3.9 340 17.9
2005-03-22 11:51:08 51°9.004 2°34.056 326.9 4.1 346 18.3
2005-03-22 11:52:08 51°9.071 2°34.035 333.2 4.2 350 19.1
2005-03-22 11:53:08 51°9.144 2°34.036 353.7 4.5 6 20
2005-03-22 11:54:07 51°9.219 2°34.081 23.9 5 30 20.5
2005-03-22 11:55:07 51°9.279 2°34.172 55.7 5 54 20.8
2005-03-22 11:56:07 51°9.308 2°34.292 89.7 4.7 80 20.3
2005-03-22 11:57:08 51°9.311 2°34.402 110.2 4 90 19.9
2005-03-22 11:58:07 51°9.304 2°34.499 123.7 3.6 99 18.7
2005-03-22 11:59:08 51°9.293 2°34.592 129.7 3.5 103 19.8
2005-03-22 12:00:07 51°9.278 2°34.678 133.4 3.4 106 20.1
2005-03-22 12:01:07 51°9.261 2°34.764 130.2 3.4 106 19.5
2005-03-22 12:02:07 51°9.246 2°34.851 132.7 3.5 106 18.8
2005-03-22 12:03:08 51°9.228 2°34.937 136.4 3.4 109 18.7
2005-03-22 12:04:07 51°9.206 2°35.013 141.5 3.1 116 18.9
2005-03-22 12:05:07 51°9.185 2°35.091 134.5 3.3 110 18.5
2005-03-22 12:06:08 51°9.165 2°35.174 134.8 3.3 111 18.4
2005-03-22 12:07:07 51°9.145 2°35.255 134.8 3.3 110 18.7
2005-03-22 12:08:07 51°9.13 2°35.341 129.2 3.5 105 18.5
2005-03-22 12:09:07 51°9.117 2°35.432 126.5 3.5 103 18.4
2005-03-22 12:10:08 51°9.103 2°35.522 129 3.4 105 18.3
2005-03-22 12:11:08 51°9.089 2°35.611 126.9 3.5 104 18.1
2005-03-22 12:12:07 51°9.076 2°35.7 123.4 3.5 102 18.1
2005-03-22 12:13:08 51°9.065 2°35.794 120.5 3.6 100 18.1
2005-03-22 12:14:07 51°9.055 2°35.884 117.9 3.5 99 17.4
2005-03-22 12:15:07 51°9.046 2°35.976 115.6 3.5 99 16.7
2005-03-22 12:16:07 51°9.031 2°36.062 131.6 3.3 110 16
2005-03-22 12:17:08 51°9.005 2°36.128 152.5 2.7 130 15
2005-03-22 12:18:07 51°8.974 2°36.167 178 2.2 151 14
2005-03-22 12:19:08 51°8.951 2°36.185 189.3 1.3 153 13.2
2005-03-22 12:20:08 51°8.938 2°36.202 190.9 0.9 135 12.8
2005-03-22 12:21:08 51°8.93 2°36.22 187.9 0.8 122 12.5
2005-03-22 12:22:07 51°8.918 2°36.244 171.6 1.7 142 12.1
2005-03-22 12:23:08 51°8.907 2°36.366 85.3 7.3 76 11.4
2005-03-22 12:24:07 51°8.997 2°36.628 62.4 13.6 59 11.7
2005-03-22 12:25:08 51°9.114 2°36.951 66.4 14 64 12.2
2005-03-22 12:26:07 51°9.201 2°37.294 72.4 14.1 68 12.4
2005-03-22 12:27:08 51°9.293 2°37.641 71.8 14.1 67 12.5
2005-03-22 12:28:08 51°9.382 2°37.986 72.4 14.2 69 12.5
2005-03-22 12:29:08 51°9.472 2°38.332 71.7 14.1 68 12.6
2005-03-22 12:30:07 51°9.56 2°38.674 71.8 14.1 68 12.6
2005-03-22 12:31:08 51°9.65 2°39.025 72 14.1 68 12.4
2005-03-22 12:32:07 51°9.738 2°39.365 72.1 14.1 68 12.1
2005-03-22 12:33:07 51°9.826 2°39.71 72.2 14.1 68 12
2005-03-22 12:34:07 51°9.914 2°40.053 72.4 14 68 12
2005-03-22 12:35:07 51°10.001 2°40.397 72.2 14 68 12
2005-03-22 12:36:07 51°10.089 2°40.743 72 14.1 68 11.9
2005-03-22 12:37:08 51°10.179 2°41.093 72.2 14.1 68 11.9
2005-03-22 12:38:08 51°10.267 2°41.441 72.9 14.2 69 11.7
2005-03-22 12:39:07 51°10.354 2°41.784 72.1 14.2 68 11.6
2005-03-22 12:40:08 51°10.443 2°42.143 72.4 14.3 69 11.6
2005-03-22 12:41:07 51°10.53 2°42.492 72.5 14.3 68 11.5
2005-03-22 12:42:07 51°10.618 2°42.84 72.3 14.1 68 11.5
2005-03-22 12:43:07 51°10.706 2°43.188 72.1 14.2 68 11.7
2005-03-22 12:44:07 51°10.795 2°43.536 72.2 14.2 68 11.8
2005-03-22 12:45:08 51°10.884 2°43.89 72.5 14.2 68 11.8
2005-03-22 12:46:07 51°10.97 2°44.233 72.3 14.2 68 11.8
2005-03-22 12:47:08 51°11.059 2°44.583 71.9 14.1 68 12
2005-03-22 12:48:08 51°11.166 2°44.915 64.4 14 61 12.2
2005-03-22 12:49:08 51°11.28 2°45.24 64.9 14.1 61 12.6
2005-03-22 12:50:07 51°11.391 2°45.567 65.9 14.1 62 12.9
2005-03-22 12:51:07 51°11.502 2°45.896 66.1 14.1 62 13.1
2005-03-22 12:52:07 51°11.614 2°46.226 65.7 14.2 61 13.4
2005-03-22 12:53:08 51°11.726 2°46.56 66.3 14.1 61 13.5
2005-03-22 12:54:08 51°11.838 2°46.889 64.9 14.1 60 13.5
2005-03-22 12:55:07 51°11.958 2°47.205 62.9 14 58 13.5
2005-03-22 12:56:07 51°12.081 2°47.523 63.1 14.1 59 13.6
2005-03-22 12:57:07 51°12.202 2°47.844 63.6 14.2 59 13.6
2005-03-22 12:58:08 51°12.326 2°48.169 63.1 14.2 59 13.5
2005-03-22 12:59:08 51°12.45 2°48.49 63.2 14.2 59 13.5
2005-03-22 13:00:08 51°12.572 2°48.812 62.8 14.2 58 13.3
2005-03-22 13:01:08 51°12.697 2°49.133 62.4 14.2 58 13.3
2005-03-22 13:02:07 51°12.819 2°49.449 62.9 14.3 58 13
2005-03-22 13:03:07 51°12.943 2°49.771 63.3 14.2 58 13.1
2005-03-22 13:04:08 51°13.07 2°50.095 61.9 14.3 57 12.9
2005-03-22 13:05:08 51°13.199 2°50.416 62.4 14.2 57 12.8
2005-03-22 13:06:07 51°13.324 2°50.729 62.5 14.3 58 12.7
2005-03-22 13:07:07 51°13.431 2°50.932 41.4 8.9 41 12.8
2005-03-22 13:08:07 51°13.5 2°51.061 67.5 4.4 59 12.7
2005-03-22 13:09:09 51°13.511 2°51.087 48.8 0.4 50 -999
2005-03-22 13:10:07 51°13.517 2°51.1 44.7 0.7 59 12.7
2005-03-22 13:11:07 51°13.524 2°51.119 49.8 0.9 57 12.5
2005-03-22 13:12:07 51°13.564 2°51.199 55.8 6.8 52 12.4
2005-03-22 13:13:08 51°13.683 2°51.478 61.1 13.8 57 12.1
2005-03-22 13:14:07 51°13.795 2°51.796 69.2 13.8 65 11.9
2005-03-22 13:15:07 51°13.904 2°52.117 67.5 13.7 63 11.7
2005-03-22 13:16:08 51°14.012 2°52.443 66 13.8 62 11.9
2005-03-22 13:17:08 51°14.118 2°52.768 67.3 13.8 63 11.9
2005-03-22 13:18:07 51°14.224 2°53.091 69.7 13.9 64 11.6
2005-03-22 13:19:08 51°14.317 2°53.433 73.7 13.8 69 11.1
2005-03-22 13:20:07 51°14.384 2°53.778 80.1 13.7 76 11.1
2005-03-22 13:21:07 51°14.438 2°54.13 83.4 13.6 77 10.9
2005-03-22 13:22:08 51°14.452 2°54.482 95.8 12.5 91 11.7
2005-03-22 13:23:08 51°14.409 2°54.789 112.7 11.7 108 11.7
2005-03-22 13:24:08 51°14.347 2°55.034 115.5 8.5 113 11
2005-03-22 13:25:08 51°14.293 2°55.202 124.6 6.7 122 11.5
2005-03-22 13:26:08 51°14.217 2°55.336 142.2 7 139 12.6
2005-03-22 13:27:08 51°14.113 2°55.427 157.7 7.3 155 11
2005-03-22 13:28:08 51°14.001 2°55.51 158.8 7.5 155 11
2005-03-22 13:29:07 51°13.888 2°55.594 158.7 7.5 156 11.2
2005-03-22 13:30:08 51°13.778 2°55.688 150.2 7.2 146 11.1
2005-03-22 13:31:08 51°13.714 2°55.796 131.6 5.2 129 11.8
2005-03-22 13:32:07 51°13.671 2°55.892 130.5 4.4 126 10
2005-03-22 13:33:07 51°13.63 2°55.98 129.8 3.8 125 10.2
2005-03-22 13:34:07 51°13.607 2°56.055 117.3 2.9 112 10.1
2005-03-22 13:35:08 51°13.596 2°56.099 123.3 1.3 112 8.1